Time;durP1;ratioP1;P1;durP2;ratioP2;P2;SDS_P1;SDS_P2;PMS_P1;PMS_P2;Temp;Humidity;BMP_temperature;BMP_pressure;BME280_temperature;BME280_humidity;BME280_pressure;Samples;Min_cycle;Max_cycle;Signal;HPM_P1;HPM_P2
2022/09/13 00:02:03;;;;;;;4.28;1.85;;;;;;;;;;5058136;28;20021;-79
2022/09/13 00:04:30;;;;;;;7.78;1.90;;;;;;;;;;5057291;28;20032;-78
2022/09/13 00:06:56;;;;;;;4.55;1.60;;;;;;;;;;5059111;28;20044;-79
2022/09/13 00:09:22;;;;;;;4.32;1.35;;;;;;;;;;5054144;28;20027;-79
2022/09/13 00:11:48;;;;;;;6.20;1.55;;;;;;;;;;5055291;28;20025;-78
2022/09/13 00:14:14;;;;;;;4.00;1.33;;;;;;;;;;5061866;28;20039;-77
2022/09/13 00:16:40;;;;;;;2.28;1.20;;;;;;;;;;5052153;28;20047;-77
2022/09/13 00:19:06;;;;;;;5.45;1.65;;;;;;;;;;5057454;28;20028;-78
2022/09/13 00:21:33;;;;;;;5.15;1.52;;;;;;;;;;5053367;28;20036;-77
2022/09/13 00:23:59;;;;;;;4.10;1.60;;;;;;;;;;5056528;28;20540;-78
2022/09/13 00:26:26;;;;;;;6.07;1.77;;;;;;;;;;5053725;28;20016;-78
2022/09/13 00:28:54;;;;;;;6.18;1.52;;;;;;;;;;5054820;28;20024;-78
2022/09/13 00:31:22;;;;;;;5.20;1.55;;;;;;;;;;5057964;28;20032;-78
2022/09/13 00:33:49;;;;;;;3.58;1.58;;;;;;;;;;5055890;28;20028;-79
2022/09/13 00:36:15;;;;;;;4.60;1.38;;;;;;;;;;5061357;28;20036;-78
2022/09/13 00:38:41;;;;;;;4.00;1.67;;;;;;;;;;5052014;28;20587;-78
2022/09/13 00:41:09;;;;;;;3.13;1.45;;;;;;;;;;5062284;28;20381;-79
2022/09/13 00:43:45;;;;;;;2.25;1.60;;;;;;;;;;5056136;28;20033;-79
2022/09/13 00:46:13;;;;;;;4.80;1.27;;;;;;;;;;5054329;28;20107;-79
2022/09/13 00:48:40;;;;;;;4.10;1.80;;;;;;;;;;5055345;28;20508;-79
2022/09/13 00:51:07;;;;;;;4.88;1.33;;;;;;;;;;5061609;28;20021;-79
2022/09/13 00:53:35;;;;;;;8.25;1.48;;;;;;;;;;5054983;28;20024;-77
2022/09/13 00:56:27;;;;;;;3.85;2.08;;;;;;;;;;5066214;28;20037;-79
2022/09/13 00:59:06;;;;;;;3.95;1.52;;;;;;;;;;5052439;28;20128;-79
2022/09/13 01:01:34;;;;;;;5.47;1.67;;;;;;;;;;5058134;28;20033;-78
2022/09/13 01:04:01;;;;;;;4.03;1.60;;;;;;;;;;5061860;28;20050;-78
2022/09/13 01:06:29;;;;;;;3.63;1.83;;;;;;;;;;5060107;28;20071;-77
2022/09/13 01:09:02;;;;;;;5.07;1.60;;;;;;;;;;5062428;28;20050;-78
2022/09/13 01:11:39;;;;;;;3.47;1.50;;;;;;;;;;5058317;28;20032;-78
2022/09/13 01:14:06;;;;;;;3.67;1.63;;;;;;;;;;5060382;28;20139;-79
2022/09/13 01:16:33;;;;;;;3.42;1.75;;;;;;;;;;5060566;28;20052;-77
2022/09/13 01:18:59;;;;;;;3.95;1.50;;;;;;;;;;5059863;28;20025;-78
2022/09/13 01:21:54;;;;;;;7.22;1.40;;;;;;;;;;5062613;28;20055;-78
2022/09/13 01:24:26;;;;;;;4.93;1.52;;;;;;;;;;5057159;28;20041;-79
2022/09/13 01:27:11;;;;;;;5.00;1.55;;;;;;;;;;5062542;28;20567;-77
2022/09/13 01:29:55;;;;;;;5.03;1.77;;;;;;;;;;5060268;28;20027;-78
2022/09/13 01:32:34;;;;;;;5.20;1.75;;;;;;;;;;5058491;28;20025;-76
2022/09/13 01:35:04;;;;;;;2.25;1.20;;;;;;;;;;5060724;28;20089;-76
2022/09/13 01:37:31;;;;;;;4.93;1.45;;;;;;;;;;5057572;28;20036;-78
2022/09/13 01:40:17;;;;;;;6.28;1.65;;;;;;;;;;5062736;28;20157;-78
2022/09/13 01:43:06;;;;;;;6.20;1.52;;;;;;;;;;5063162;28;20017;-79
2022/09/13 01:45:35;;;;;;;6.32;1.40;;;;;;;;;;5050774;28;20025;-79
2022/09/13 01:48:05;;;;;;;4.53;1.77;;;;;;;;;;5059395;28;20055;-79
2022/09/13 01:50:50;;;;;;;2.90;1.40;;;;;;;;;;5060227;28;20049;-80
2022/09/13 01:53:31;;;;;;;3.65;1.35;;;;;;;;;;5062168;28;20423;-79
2022/09/13 01:56:03;;;;;;;4.68;1.52;;;;;;;;;;5058214;28;20543;-80
2022/09/13 01:58:35;;;;;;;3.47;1.50;;;;;;;;;;5060108;28;20025;-80
2022/09/13 02:01:14;;;;;;;4.80;1.65;;;;;;;;;;5062032;28;20018;-79
2022/09/13 02:03:45;;;;;;;4.38;1.42;;;;;;;;;;5064043;28;20078;-77
2022/09/13 02:06:13;;;;;;;4.82;1.70;;;;;;;;;;5063938;28;20760;-79
2022/09/13 02:08:42;;;;;;;4.35;1.58;;;;;;;;;;5065803;28;20075;-79
2022/09/13 02:11:10;;;;;;;2.90;1.42;;;;;;;;;;5065465;28;20021;-79
2022/09/13 02:13:39;;;;;;;4.50;1.42;;;;;;;;;;5062690;28;20033;-79
2022/09/13 02:16:10;;;;;;;3.92;1.58;;;;;;;;;;5064524;28;20016;-80
2022/09/13 02:18:40;;;;;;;5.18;1.55;;;;;;;;;;5062299;28;20021;-80
2022/09/13 02:21:12;;;;;;;2.97;1.60;;;;;;;;;;5068318;28;20182;-79
2022/09/13 02:23:44;;;;;;;4.63;1.60;;;;;;;;;;5061920;28;20032;-79
2022/09/13 02:26:10;;;;;;;;;;;;;;;;;;5064631;28;20027;-80
2022/09/13 02:28:37;;;;;;;3.55;1.50;;;;;;;;;;5065009;28;19955;-80
2022/09/13 02:31:05;;;;;;;2.20;1.40;;;;;;;;;;5063295;28;20047;-80
2022/09/13 02:33:36;;;;;;;2.40;1.30;;;;;;;;;;5058725;28;20021;-79
2022/09/13 02:36:05;;;;;;;5.90;1.80;;;;;;;;;;5064642;28;20116;-79
2022/09/13 02:38:44;;;;;;;3.65;1.20;;;;;;;;;;5065115;28;20025;-79
2022/09/13 02:41:26;;;;;;;4.32;1.45;;;;;;;;;;5062898;28;20056;-79
2022/09/13 02:43:55;;;;;;;4.75;1.70;;;;;;;;;;5055857;28;20025;-79
2022/09/13 02:46:36;;;;;;;5.07;1.58;;;;;;;;;;5063271;28;20024;-79
2022/09/13 02:49:23;;;;;;;4.85;1.50;;;;;;;;;;5061237;28;20037;-80
2022/09/13 02:51:59;;;;;;;2.38;1.17;;;;;;;;;;5064911;28;20013;-79
2022/09/13 02:54:25;;;;;;;3.75;1.70;;;;;;;;;;5064082;28;20043;-80
2022/09/13 02:57:00;;;;;;;4.32;1.73;;;;;;;;;;5065047;28;20021;-80
2022/09/13 02:59:27;;;;;;;2.95;1.45;;;;;;;;;;5061814;28;20032;-80
2022/09/13 03:01:59;;;;;;;4.38;1.55;;;;;;;;;;5064684;28;20017;-79
2022/09/13 03:04:27;;;;;;;4.13;1.40;;;;;;;;;;5062376;28;20389;-80
2022/09/13 03:06:53;;;;;;;2.42;1.38;;;;;;;;;;5066146;28;20033;-80
2022/09/13 03:09:19;;;;;;;5.25;1.30;;;;;;;;;;5062754;28;20094;-80
2022/09/13 03:12:11;;;;;;;4.53;1.55;;;;;;;;;;5061658;28;20123;-78
2022/09/13 03:14:47;;;;;;;3.28;1.48;;;;;;;;;;5060541;28;20047;-80
2022/09/13 03:17:22;;;;;;;5.35;1.70;;;;;;;;;;5058709;28;20112;-80
2022/09/13 03:20:08;;;;;;;5.38;1.60;;;;;;;;;;5056807;28;20033;-80
2022/09/13 03:22:51;;;;;;;3.72;1.30;;;;;;;;;;5055643;28;20693;-79
2022/09/13 03:25:35;;;;;;;3.13;1.30;;;;;;;;;;5055907;28;20025;-79
2022/09/13 03:28:31;;;;;;;4.32;1.77;;;;;;;;;;5058150;28;20103;-78
2022/09/13 03:31:03;;;;;;;4.88;1.40;;;;;;;;;;5058332;28;20036;-79
2022/09/13 03:33:33;;;;;;;3.40;1.38;;;;;;;;;;5054274;28;20112;-79
2022/09/13 03:36:08;;;;;;;4.13;1.45;;;;;;;;;;5056200;28;20033;-79
2022/09/13 03:38:37;;;;;;;2.78;1.58;;;;;;;;;;5056366;28;20024;-78
2022/09/13 03:41:15;;;;;;;4.35;1.65;;;;;;;;;;5056871;28;20020;-76
2022/09/13 03:43:53;;;;;;;3.15;1.65;;;;;;;;;;5058953;28;20020;-77
2022/09/13 03:46:19;;;;;;;7.07;1.60;;;;;;;;;;5056679;28;20021;-78
2022/09/13 03:48:46;;;;;;;4.40;1.60;;;;;;;;;;5055875;28;20041;-79
2022/09/13 03:51:13;;;;;;;4.57;1.75;;;;;;;;;;5056424;28;20423;-79
2022/09/13 03:53:45;;;;;;;6.05;1.67;;;;;;;;;;5059572;28;20036;-79
2022/09/13 03:56:15;;;;;;;2.95;1.38;;;;;;;;;;5055304;28;20028;-79
2022/09/13 03:58:41;;;;;;;4.80;1.63;;;;;;;;;;5056904;28;20036;-77
2022/09/13 04:01:09;;;;;;;5.05;1.63;;;;;;;;;;5055691;28;20029;-79
2022/09/13 04:03:35;;;;;;;2.63;1.40;;;;;;;;;;5053778;28;20060;-76
2022/09/13 04:06:01;;;;;;;4.65;1.60;;;;;;;;;;5056201;28;20063;-78
2022/09/13 04:08:28;;;;;;;6.03;1.67;;;;;;;;;;5055242;28;20021;-79
2022/09/13 04:10:54;;;;;;;3.95;1.27;;;;;;;;;;5058451;28;20511;-78
2022/09/13 04:13:21;;;;;;;3.88;1.73;;;;;;;;;;5056421;28;20085;-78
2022/09/13 04:15:49;;;;;;;5.80;1.75;;;;;;;;;;5056000;28;20029;-79
2022/09/13 04:18:15;;;;;;;6.97;1.70;;;;;;;;;;5055003;28;20100;-77
2022/09/13 04:20:41;;;;;;;4.05;1.33;;;;;;;;;;5054607;28;20488;-78
2022/09/13 04:23:08;;;;;;;3.78;1.40;;;;;;;;;;5058022;28;20165;-77
2022/09/13 04:25:34;;;;;;;5.53;1.45;;;;;;;;;;5054107;28;20040;-78
2022/09/13 04:28:01;;;;;;;5.15;1.65;;;;;;;;;;5057484;28;20024;-74
2022/09/13 04:30:28;;;;;;;5.18;1.42;;;;;;;;;;5054905;28;20037;-78
2022/09/13 04:32:58;;;;;;;3.45;1.52;;;;;;;;;;5054856;28;20492;-77
2022/09/13 04:35:24;;;;;;;3.22;1.40;;;;;;;;;;5055561;28;20040;-79
2022/09/13 04:37:51;;;;;;;4.88;1.63;;;;;;;;;;5056952;28;20035;-77
2022/09/13 04:40:17;;;;;;;5.28;1.50;;;;;;;;;;5056704;28;20024;-75
2022/09/13 04:42:46;;;;;;;5.00;1.83;;;;;;;;;;5054055;28;20032;-78
2022/09/13 04:45:13;;;;;;;6.07;1.95;;;;;;;;;;5060182;28;20111;-79
2022/09/13 04:47:39;;;;;;;4.97;1.35;;;;;;;;;;5053370;28;20016;-77
2022/09/13 04:50:06;;;;;;;8.20;1.83;;;;;;;;;;5055983;28;20055;-78
2022/09/13 04:52:32;;;;;;;2.28;1.52;;;;;;;;;;5057718;28;20549;-79
2022/09/13 04:55:00;;;;;;;2.83;1.45;;;;;;;;;;5056308;28;20032;-78
2022/09/13 04:57:27;;;;;;;3.35;1.50;;;;;;;;;;5055065;28;20028;-77
2022/09/13 04:59:53;;;;;;;6.10;1.50;;;;;;;;;;5056975;28;20565;-77
2022/09/13 05:02:19;;;;;;;3.10;1.40;;;;;;;;;;5056103;28;20152;-79
2022/09/13 05:04:46;;;;;;;6.05;1.63;;;;;;;;;;5053082;28;20040;-78
2022/09/13 05:07:12;;;;;;;6.75;1.70;;;;;;;;;;5059980;28;20009;-76
2022/09/13 05:09:38;;;;;;;3.60;1.50;;;;;;;;;;5056968;28;20552;-77
2022/09/13 05:12:04;;;;;;;6.82;2.15;;;;;;;;;;5053367;28;20028;-77
2022/09/13 05:14:31;;;;;;;7.25;2.08;;;;;;;;;;5057410;28;20523;-76
2022/09/13 05:16:57;;;;;;;4.20;2.10;;;;;;;;;;5053030;28;20029;-81
2022/09/13 05:19:23;;;;;;;22.00;17.75;;;;;;;;;;5054898;28;20028;-84
2022/09/13 05:21:49;;;;;;;15.02;11.45;;;;;;;;;;5055003;28;20025;-82
2022/09/13 05:24:15;;;;;;;9.43;8.43;;;;;;;;;;5055521;28;20150;-85
2022/09/13 05:26:41;;;;;;;3.92;2.60;;;;;;;;;;5058417;28;20024;-83
2022/09/13 05:29:08;;;;;;;5.45;2.10;;;;;;;;;;5045901;28;20550;-82
2022/09/13 05:31:36;;;;;;;5.85;2.60;;;;;;;;;;5054574;28;20024;-82
2022/09/13 05:34:10;;;;;;;9.75;4.15;;;;;;;;;;5058994;28;20474;-84
2022/09/13 05:36:36;;;;;;;6.82;2.70;;;;;;;;;;5060189;28;20025;-84
2022/09/13 05:39:03;;;;;;;9.48;3.22;;;;;;;;;;5062628;28;20025;-82
2022/09/13 05:41:29;;;;;;;8.30;2.63;;;;;;;;;;5061279;28;20134;-82
2022/09/13 05:43:55;;;;;;;10.02;2.78;;;;;;;;;;5057915;28;20025;-84
2022/09/13 05:46:22;;;;;;;6.65;2.72;;;;;;;;;;5060575;28;20128;-81
2022/09/13 05:48:48;;;;;;;7.78;2.90;;;;;;;;;;5058602;28;20513;-81
2022/09/13 05:51:14;;;;;;;6.88;2.25;;;;;;;;;;5062857;28;20112;-92
2022/09/13 05:53:42;;;;;;;6.07;2.83;;;;;;;;;;5068430;28;20036;-86
2022/09/13 05:56:12;;;;;;;6.72;3.17;;;;;;;;;;5058974;28;20434;-82
2022/09/13 05:58:39;;;;;;;9.50;3.40;;;;;;;;;;5055590;28;20074;-82
2022/09/13 06:01:05;;;;;;;8.25;2.88;;;;;;;;;;5058115;28;20017;-86
2022/09/13 06:03:31;;;;;;;13.13;3.33;;;;;;;;;;5063883;28;20036;-81
2022/09/13 06:05:58;;;;;;;11.68;2.97;;;;;;;;;;5062568;28;20552;-90
2022/09/13 06:08:25;;;;;;;8.77;2.85;;;;;;;;;;5070301;28;20091;-91
2022/09/13 06:10:56;;;;;;;14.63;3.50;;;;;;;;;;5066053;28;20012;-82
2022/09/13 06:13:23;;;;;;;13.65;4.30;;;;;;;;;;5055456;28;20032;-87
2022/09/13 06:15:49;;;;;;;7.85;3.75;;;;;;;;;;5057397;28;20059;-81
2022/09/13 06:18:16;;;;;;;6.93;3.60;;;;;;;;;;5055908;28;20629;-80
2022/09/13 06:20:42;;;;;;;7.35;3.67;;;;;;;;;;5059606;28;20052;-78
2022/09/13 06:23:08;;;;;;;7.57;3.33;;;;;;;;;;5057843;28;20023;-77
2022/09/13 06:25:35;;;;;;;9.48;3.53;;;;;;;;;;5058321;28;20028;-78
2022/09/13 06:28:01;;;;;;;5.78;3.08;;;;;;;;;;5057998;28;20493;-80
2022/09/13 06:30:27;;;;;;;5.00;3.20;;;;;;;;;;5053195;28;20033;-81
2022/09/13 06:32:55;;;;;;;7.38;3.45;;;;;;;;;;5061295;28;20485;-79
2022/09/13 06:35:21;;;;;;;9.68;3.72;;;;;;;;;;5055467;28;20028;-76
2022/09/13 06:37:47;;;;;;;8.68;3.05;;;;;;;;;;5059828;28;20025;-78
2022/09/13 06:40:14;;;;;;;7.78;2.83;;;;;;;;;;5055635;28;20468;-79
2022/09/13 06:42:40;;;;;;;7.32;2.17;;;;;;;;;;5058550;28;20082;-80
2022/09/13 06:45:06;;;;;;;4.03;1.80;;;;;;;;;;5056661;28;20058;-81
2022/09/13 06:47:32;;;;;;;5.47;1.95;;;;;;;;;;5049810;28;20036;-78
2022/09/13 06:49:59;;;;;;;5.07;1.80;;;;;;;;;;5058363;28;20036;-78
2022/09/13 06:52:26;;;;;;;4.55;1.92;;;;;;;;;;5057503;28;20373;-79
2022/09/13 06:54:53;;;;;;;5.82;1.75;;;;;;;;;;5059564;28;20029;-78
2022/09/13 06:57:19;;;;;;;7.10;2.05;;;;;;;;;;5059177;28;20019;-80
2022/09/13 06:59:45;;;;;;;7.03;2.00;;;;;;;;;;5056040;28;20074;-78
2022/09/13 07:02:15;;;;;;;4.07;2.00;;;;;;;;;;5059663;28;20021;-78
2022/09/13 07:04:41;;;;;;;4.53;1.50;;;;;;;;;;5051139;28;20022;-79
2022/09/13 07:07:07;;;;;;;4.63;1.60;;;;;;;;;;5056400;28;20021;-78
2022/09/13 07:09:33;;;;;;;4.13;1.90;;;;;;;;;;5057368;28;20403;-75
2022/09/13 07:12:00;;;;;;;3.83;1.55;;;;;;;;;;5055636;28;20025;-78
2022/09/13 07:14:27;;;;;;;5.85;1.75;;;;;;;;;;5055439;28;20029;-78
2022/09/13 07:16:54;;;;;;;7.50;2.22;;;;;;;;;;5054091;28;20043;-77
2022/09/13 07:19:25;;;;;;;4.53;1.75;;;;;;;;;;5055104;28;20087;-79
2022/09/13 07:21:51;;;;;;;5.18;2.00;;;;;;;;;;5053757;28;20550;-79
2022/09/13 07:24:18;;;;;;;7.22;2.45;;;;;;;;;;5056265;28;20023;-78
2022/09/13 07:26:45;;;;;;;6.82;1.77;;;;;;;;;;5055539;28;20031;-73
2022/09/13 07:29:14;;;;;;;4.70;1.80;;;;;;;;;;5068095;28;20025;-79
2022/09/13 07:31:41;;;;;;;5.40;2.03;;;;;;;;;;5048006;28;20033;-78
2022/09/13 07:34:11;;;;;;;5.18;1.92;;;;;;;;;;5053617;28;20033;-78
2022/09/13 07:36:37;;;;;;;6.80;2.22;;;;;;;;;;5047807;28;20025;-73
2022/09/13 07:39:04;;;;;;;4.45;1.95;;;;;;;;;;5049298;28;20539;-78
2022/09/13 07:41:31;;;;;;;5.70;1.80;;;;;;;;;;5046215;28;20197;-79
2022/09/13 07:43:58;;;;;;;7.70;1.98;;;;;;;;;;5054378;28;20025;-76
2022/09/13 07:46:26;;;;;;;4.30;1.80;;;;;;;;;;5054787;28;20191;-78
2022/09/13 07:48:52;;;;;;;2.97;1.70;;;;;;;;;;5046736;28;20021;-77
2022/09/13 07:51:20;;;;;;;4.32;1.85;;;;;;;;;;5046173;28;20032;-80
2022/09/13 07:53:47;;;;;;;4.80;1.85;;;;;;;;;;5058845;28;20041;-77
2022/09/13 07:56:15;;;;;;;3.53;1.90;;;;;;;;;;5055605;28;20521;-79
2022/09/13 07:58:42;;;;;;;2.72;1.52;;;;;;;;;;5054275;28;20037;-78
2022/09/13 08:01:16;;;;;;;4.10;1.88;;;;;;;;;;5059634;28;20281;-79
2022/09/13 08:03:42;;;;;;;4.13;1.52;;;;;;;;;;5058056;28;20027;-78
2022/09/13 08:06:09;;;;;;;3.45;1.50;;;;;;;;;;5052650;28;20017;-79
2022/09/13 08:08:35;;;;;;;5.93;1.92;;;;;;;;;;5057125;28;20078;-77
2022/09/13 08:11:02;;;;;;;4.47;1.50;;;;;;;;;;5056523;28;20484;-79
2022/09/13 08:13:29;;;;;;;3.38;1.35;;;;;;;;;;5060192;28;20040;-75
2022/09/13 08:15:56;;;;;;;7.03;1.92;;;;;;;;;;5054960;28;20021;-79
2022/09/13 08:18:22;;;;;;;5.15;1.58;;;;;;;;;;5054891;28;20025;-78
2022/09/13 08:20:48;;;;;;;4.72;2.10;;;;;;;;;;5056076;28;20226;-80
2022/09/13 08:23:14;;;;;;;6.22;1.65;;;;;;;;;;5057811;28;20028;-78
2022/09/13 08:25:40;;;;;;;6.53;1.73;;;;;;;;;;5057171;28;20100;-79
2022/09/13 08:28:08;;;;;;;4.20;1.42;;;;;;;;;;5059576;28;20025;-78
2022/09/13 08:30:36;;;;;;;4.03;1.58;;;;;;;;;;5056816;28;20980;-78
2022/09/13 08:33:05;;;;;;;4.15;1.40;;;;;;;;;;5058367;28;20340;-78
2022/09/13 08:35:32;;;;;;;5.63;1.88;;;;;;;;;;5052879;28;20036;-78
2022/09/13 08:37:59;;;;;;;4.80;1.70;;;;;;;;;;5054098;28;20294;-78
2022/09/13 08:40:26;;;;;;;4.45;1.85;;;;;;;;;;5055066;28;20046;-76
2022/09/13 08:42:58;;;;;;;3.33;1.30;;;;;;;;;;5053839;28;20028;-78
2022/09/13 08:45:24;;;;;;;3.28;1.20;;;;;;;;;;5052304;28;20032;-78
2022/09/13 08:47:56;;;;;;;2.75;1.38;;;;;;;;;;5055886;28;20081;-77
2022/09/13 08:50:25;;;;;;;3.47;1.45;;;;;;;;;;5056492;28;20434;-77
2022/09/13 08:53:15;;;;;;;3.78;1.52;;;;;;;;;;5052641;28;20025;-75
2022/09/13 08:55:41;;;;;;;4.90;1.80;;;;;;;;;;5053612;28;20136;-80
2022/09/13 08:58:08;;;;;;;6.60;1.98;;;;;;;;;;5057068;28;20075;-80
2022/09/13 09:00:38;;;;;;;4.68;1.52;;;;;;;;;;5055788;28;20357;-80
2022/09/13 09:03:20;;;;;;;3.72;1.73;;;;;;;;;;5057926;28;20052;-80
2022/09/13 09:05:46;;;;;;;;;;;;;;;;;;5053429;28;20024;-79
2022/09/13 09:08:37;;;;;;;3.25;1.65;;;;;;;;;;5055910;28;19904;-79
2022/09/13 09:11:08;;;;;;;3.93;1.40;;;;;;;;;;5056784;28;20044;-78
2022/09/13 09:13:34;;;;;;;;;;;;;;;;;;5054159;28;20351;-78
2022/09/13 09:16:14;;;;;;;2.72;1.50;;;;;;;;;;5060025;28;19958;-79
2022/09/13 09:18:43;;;;;;;2.47;1.50;;;;;;;;;;5049939;28;20036;-78
2022/09/13 09:21:15;;;;;;;4.50;1.50;;;;;;;;;;5056218;28;20015;-79
2022/09/13 09:23:53;;;;;;;3.63;1.33;;;;;;;;;;5053106;28;20036;-78
2022/09/13 09:26:20;;;;;;;2.45;1.35;;;;;;;;;;5054337;28;20031;-75
2022/09/13 09:28:50;;;;;;;3.47;1.67;;;;;;;;;;5054230;28;20429;-78
2022/09/13 09:31:23;;;;;;;4.13;1.35;;;;;;;;;;5056333;28;20048;-83
2022/09/13 09:33:56;;;;;;;3.42;1.65;;;;;;;;;;5054225;28;20040;-76
2022/09/13 09:36:34;;;;;;;4.95;1.48;;;;;;;;;;5055046;28;20016;-76
2022/09/13 09:39:03;;;;;;;4.22;1.45;;;;;;;;;;5052994;28;20035;-76
2022/09/13 09:41:31;;;;;;;3.70;1.42;;;;;;;;;;5055006;28;20523;-76
2022/09/13 09:44:00;;;;;;;4.57;1.60;;;;;;;;;;5053841;28;20099;-75
2022/09/13 09:46:28;;;;;;;4.40;1.40;;;;;;;;;;5052935;28;20126;-77
2022/09/13 09:48:56;;;;;;;5.93;1.30;;;;;;;;;;5050485;28;20677;-75
2022/09/13 09:51:25;;;;;;;3.30;1.45;;;;;;;;;;5055815;28;20135;-78
2022/09/13 09:53:54;;;;;;;3.35;1.52;;;;;;;;;;5052231;28;20063;-74
2022/09/13 09:56:23;;;;;;;2.97;1.20;;;;;;;;;;5053193;28;20077;-76
2022/09/13 09:58:50;;;;;;;4.50;1.73;;;;;;;;;;5055076;28;20060;-76
2022/09/13 10:01:27;;;;;;;5.75;1.40;;;;;;;;;;5054970;28;20350;-76
2022/09/13 10:03:57;;;;;;;2.05;1.15;;;;;;;;;;5053680;28;20025;-77
2022/09/13 10:06:24;;;;;;;2.55;1.10;;;;;;;;;;5057806;28;20513;-77
2022/09/13 10:08:59;;;;;;;2.53;1.38;;;;;;;;;;5054556;28;20028;-76
2022/09/13 10:11:37;;;;;;;2.00;1.10;;;;;;;;;;5053668;28;20012;-77
2022/09/13 10:14:04;;;;;;;2.95;1.25;;;;;;;;;;5053904;28;20029;-74
2022/09/13 10:16:30;;;;;;;4.68;1.48;;;;;;;;;;5052602;28;20036;-74
2022/09/13 10:19:20;;;;;;;3.00;1.20;;;;;;;;;;5055708;28;20055;-77
2022/09/13 10:21:58;;;;;;;2.72;1.17;;;;;;;;;;5054169;28;20035;-78
2022/09/13 10:24:25;;;;;;;6.85;1.27;;;;;;;;;;5059685;28;20063;-77
2022/09/13 10:26:51;;;;;;;1.98;0.98;;;;;;;;;;5054369;28;20025;-77
2022/09/13 10:29:17;;;;;;;2.40;1.00;;;;;;;;;;5062338;28;20032;-76
2022/09/13 10:31:45;;;;;;;2.35;1.00;;;;;;;;;;5059893;28;20081;-77
2022/09/13 10:34:13;;;;;;;1.70;0.98;;;;;;;;;;5056225;28;20064;-77
2022/09/13 10:36:46;;;;;;;3.05;1.25;;;;;;;;;;5057711;28;20023;-77
2022/09/13 10:39:17;;;;;;;3.13;1.05;;;;;;;;;;5056754;28;20024;-77
2022/09/13 10:41:48;;;;;;;3.40;1.20;;;;;;;;;;5055546;28;20033;-77
2022/09/13 10:44:26;;;;;;;6.28;1.50;;;;;;;;;;5056536;28;20488;-76
2022/09/13 10:46:53;;;;;;;3.47;1.15;;;;;;;;;;5058704;28;20488;-76
2022/09/13 10:49:36;;;;;;;3.95;1.58;;;;;;;;;;5055042;28;20159;-75
2022/09/13 10:52:22;;;;;;;2.10;1.10;;;;;;;;;;5058205;28;20496;-77
2022/09/13 10:54:48;;;;;;;4.20;1.23;;;;;;;;;;5057193;28;20124;-78
2022/09/13 10:57:35;;;;;;;4.57;1.30;;;;;;;;;;5056722;28;20082;-78
2022/09/13 11:00:02;;;;;;;2.97;1.23;;;;;;;;;;5057021;28;20384;-79
2022/09/13 11:02:34;;;;;;;7.07;1.33;;;;;;;;;;5056421;28;20021;-79
2022/09/13 11:05:00;;;;;;;6.47;1.13;;;;;;;;;;5055959;28;20024;-79
2022/09/13 11:07:56;;;;;;;2.95;1.35;;;;;;;;;;5054998;28;20029;-79
2022/09/13 11:10:22;;;;;;;3.88;1.50;;;;;;;;;;5058600;28;20020;-79
2022/09/13 11:12:53;;;;;;;3.35;1.50;;;;;;;;;;5055525;28;20020;-80
2022/09/13 11:15:19;;;;;;;;;;;;;;;;;;5056681;28;20198;-78
2022/09/13 11:17:51;;;;;;;2.60;1.30;;;;;;;;;;5058289;28;19974;-78
2022/09/13 11:20:36;;;;;;;1.80;1.10;;;;;;;;;;5054988;28;20136;-79
2022/09/13 11:23:06;;;;;;;3.83;1.88;;;;;;;;;;5054034;28;20025;-78
2022/09/13 11:25:55;;;;;;;3.70;1.27;;;;;;;;;;5055925;28;20445;-76
2022/09/13 11:28:39;;;;;;;4.53;1.60;;;;;;;;;;5057488;28;20052;-78
2022/09/13 11:31:15;;;;;;;4.00;1.35;;;;;;;;;;5055957;28;20543;-78
2022/09/13 11:34:00;;;;;;;3.90;1.30;;;;;;;;;;5055681;28;20060;-78
2022/09/13 11:36:26;;;;;;;4.45;1.08;;;;;;;;;;5055359;28;20077;-77
2022/09/13 11:38:55;;;;;;;3.60;1.40;;;;;;;;;;5053940;28;20052;-75
2022/09/13 11:41:38;;;;;;;6.57;1.73;;;;;;;;;;5056074;28;20488;-77
2022/09/13 11:44:04;;;;;;;3.95;1.60;;;;;;;;;;5054136;28;20366;-77
2022/09/13 11:46:30;;;;;;;3.53;1.42;;;;;;;;;;5058631;28;20473;-77
2022/09/13 11:49:04;;;;;;;5.63;1.67;;;;;;;;;;5052837;28;20239;-77
2022/09/13 11:51:43;;;;;;;5.20;1.70;;;;;;;;;;5057999;28;20021;-77
2022/09/13 11:54:26;;;;;;;6.93;1.45;;;;;;;;;;5059285;28;20488;-78
2022/09/13 11:56:55;;;;;;;3.60;1.70;;;;;;;;;;5057941;28;20016;-78
2022/09/13 11:59:29;;;;;;;3.70;1.30;;;;;;;;;;5055332;28;20077;-78
2022/09/13 12:01:58;;;;;;;6.43;2.03;;;;;;;;;;5057192;28;20504;-75
2022/09/13 12:04:30;;;;;;;5.20;1.65;;;;;;;;;;5055021;28;20111;-77
2022/09/13 12:06:59;;;;;;;6.82;1.50;;;;;;;;;;5055623;28;20031;-78
2022/09/13 12:09:28;;;;;;;3.50;1.60;;;;;;;;;;5056014;28;20027;-77
2022/09/13 12:12:03;;;;;;;3.67;1.35;;;;;;;;;;5054778;28;20040;-74
2022/09/13 12:14:32;;;;;;;2.35;1.38;;;;;;;;;;5056172;28;20108;-78
2022/09/13 12:17:02;;;;;;;3.47;1.63;;;;;;;;;;5054290;28;20104;-77
2022/09/13 12:19:40;;;;;;;3.53;1.38;;;;;;;;;;5057370;28;20485;-77
2022/09/13 12:22:06;;;;;;;3.17;1.27;;;;;;;;;;5053433;28;20105;-77
2022/09/13 12:24:32;;;;;;;4.03;1.20;;;;;;;;;;5055774;28;20028;-77
2022/09/13 12:27:00;;;;;;;2.92;1.35;;;;;;;;;;5054957;28;20559;-77
2022/09/13 12:29:38;;;;;;;6.13;1.60;;;;;;;;;;5052923;28;20017;-77
2022/09/13 12:32:06;;;;;;;3.00;1.13;;;;;;;;;;5053741;28;20052;-77
2022/09/13 12:34:44;;;;;;;2.80;1.25;;;;;;;;;;5060201;28;20059;-77
2022/09/13 12:37:17;;;;;;;3.03;1.30;;;;;;;;;;5057547;28;20416;-77
2022/09/13 12:39:52;;;;;;;3.70;1.38;;;;;;;;;;5055453;28;20013;-78
2022/09/13 12:42:31;;;;;;;2.55;1.20;;;;;;;;;;5052851;28;20029;-77
2022/09/13 12:45:06;;;;;;;10.50;1.63;;;;;;;;;;5058397;28;20829;-75
2022/09/13 12:47:36;;;;;;;3.22;1.52;;;;;;;;;;5054278;28;20032;-77
2022/09/13 12:50:14;;;;;;;2.65;1.20;;;;;;;;;;5056636;28;20122;-77
2022/09/13 12:52:46;;;;;;;3.78;1.30;;;;;;;;;;5052615;28;20024;-77
2022/09/13 12:55:28;;;;;;;3.13;1.20;;;;;;;;;;5055455;28;20488;-78
2022/09/13 12:58:12;;;;;;;4.57;1.73;;;;;;;;;;5056294;28;20031;-78
2022/09/13 13:00:42;;;;;;;4.55;1.73;;;;;;;;;;5056297;28;20591;-78
2022/09/13 13:03:10;;;;;;;6.35;1.60;;;;;;;;;;5054278;28;20036;-78
2022/09/13 13:05:41;;;;;;;3.97;1.20;;;;;;;;;;5057238;28;20491;-77
2022/09/13 13:08:20;;;;;;;2.70;1.23;;;;;;;;;;5055075;28;20032;-77
2022/09/13 13:11:02;;;;;;;6.60;1.70;;;;;;;;;;5053054;28;20035;-77
2022/09/13 13:13:28;;;;;;;;;;;;;;;;;;5053493;28;20025;-76
2022/09/13 13:15:56;;;;;;;3.38;1.33;;;;;;;;;;5055769;28;19909;-77
2022/09/13 13:18:27;;;;;;;4.80;1.42;;;;;;;;;;5055395;28;20027;-76
2022/09/13 13:20:53;;;;;;;3.40;1.67;;;;;;;;;;5053034;28;20043;-77
2022/09/13 13:23:25;;;;;;;3.97;1.30;;;;;;;;;;5057137;28;20029;-77
2022/09/13 13:26:10;;;;;;;5.13;1.60;;;;;;;;;;5053918;28;20034;-75
2022/09/13 13:28:50;;;;;;;4.25;1.20;;;;;;;;;;5056135;28;20032;-77
2022/09/13 13:31:29;;;;;;;4.85;1.40;;;;;;;;;;5056187;28;20477;-77
2022/09/13 13:34:07;;;;;;;4.00;1.00;;;;;;;;;;5055337;28;20040;-76
2022/09/13 13:36:39;;;;;;;2.75;1.17;;;;;;;;;;5058060;28;20032;-77
2022/09/13 13:39:11;;;;;;;7.15;1.50;;;;;;;;;;5052944;28;20036;-77
2022/09/13 13:41:40;;;;;;;3.33;1.50;;;;;;;;;;5057448;28;20040;-78
2022/09/13 13:44:16;;;;;;;2.60;1.17;;;;;;;;;;5055314;28;20036;-77
2022/09/13 13:46:43;;;;;;;2.88;1.48;;;;;;;;;;5053357;28;20112;-77
2022/09/13 13:49:31;;;;;;;4.55;1.30;;;;;;;;;;5055547;28;20036;-77
2022/09/13 13:52:17;;;;;;;3.15;1.38;;;;;;;;;;5055207;28;20020;-77
2022/09/13 13:55:03;;;;;;;4.20;1.50;;;;;;;;;;5057817;28;20040;-78
2022/09/13 13:57:29;;;;;;;6.85;1.80;;;;;;;;;;5056050;28;20028;-78
2022/09/13 14:00:10;;;;;;;2.45;1.02;;;;;;;;;;5060506;28;20028;-77
2022/09/13 14:02:49;;;;;;;2.78;1.33;;;;;;;;;;5054749;28;20724;-77
2022/09/13 14:05:18;;;;;;;6.20;1.25;;;;;;;;;;5059148;28;20013;-76
2022/09/13 14:08:11;;;;;;;4.82;1.33;;;;;;;;;;5054881;28;20029;-77
2022/09/13 14:10:52;;;;;;;2.25;1.15;;;;;;;;;;5058806;28;20032;-78
2022/09/13 14:13:41;;;;;;;3.28;1.20;;;;;;;;;;5054833;28;20627;-77
2022/09/13 14:16:28;;;;;;;3.63;1.35;;;;;;;;;;5060496;28;20204;-77
2022/09/13 14:19:05;;;;;;;5.35;1.33;;;;;;;;;;5055624;28;20029;-76
2022/09/13 14:21:31;;;;;;;2.40;1.17;;;;;;;;;;5055360;28;20477;-75
2022/09/13 14:24:17;;;;;;;3.38;1.35;;;;;;;;;;5058695;28;20024;-76
2022/09/13 14:26:44;;;;;;;2.53;1.38;;;;;;;;;;5055158;28;20048;-77
2022/09/13 14:29:14;;;;;;;3.35;1.50;;;;;;;;;;5058846;28;20026;-77
2022/09/13 14:31:44;;;;;;;2.38;1.17;;;;;;;;;;5056236;28;20052;-77
2022/09/13 14:34:36;;;;;;;2.75;1.42;;;;;;;;;;5058365;28;20021;-77
2022/09/13 14:37:02;;;;;;;;;;;;;;;;;;5056852;28;20155;-77
2022/09/13 14:39:29;;;;;;;3.28;1.10;;;;;;;;;;5061509;28;20397;-78
2022/09/13 14:42:02;;;;;;;3.55;1.42;;;;;;;;;;5056588;28;20021;-77
2022/09/13 14:44:29;;;;;;;2.17;1.10;;;;;;;;;;5056513;28;20025;-78
2022/09/13 14:47:05;;;;;;;3.40;1.40;;;;;;;;;;5057101;28;20032;-77
2022/09/13 14:49:34;;;;;;;5.00;1.30;;;;;;;;;;5055314;28;20040;-77
2022/09/13 14:52:03;;;;;;;5.32;1.52;;;;;;;;;;5056574;28;20507;-77
2022/09/13 14:54:33;;;;;;;2.60;0.88;;;;;;;;;;5055979;28;20151;-77
2022/09/13 14:57:01;;;;;;;5.00;1.40;;;;;;;;;;5057626;28;20376;-77
2022/09/13 14:59:32;;;;;;;2.45;1.10;;;;;;;;;;5058573;28;20358;-77
2022/09/13 15:02:05;;;;;;;2.13;1.10;;;;;;;;;;5058399;28;20103;-77
2022/09/13 15:04:31;;;;;;;4.70;1.30;;;;;;;;;;5056791;28;20032;-77
2022/09/13 15:07:08;;;;;;;5.25;1.48;;;;;;;;;;5058820;28;20048;-77
2022/09/13 15:09:36;;;;;;;3.00;1.00;;;;;;;;;;5061573;28;20035;-76